Time;durP1;ratioP1;P1;durP2;ratioP2;P2;SDS_P1;SDS_P2;PMS_P1;PMS_P2;Temp;Humidity;BMP_temperature;BMP_pressure;BME280_temperature;BME280_humidity;BME280_pressure;Samples;Min_cycle;Max_cycle;Signal;HPM_P1;HPM_P2
2022/12/22 03:26:45;;;;;;;134.37;35.53;;;;;;;2.62;100.00;99363.97;4190111;28;20319;-73
2022/12/22 03:29:12;;;;;;;129.33;36.27;;;;;;;2.65;100.00;99356.72;4189056;28;21918;-72
2022/12/22 03:31:39;;;;;;;116.07;35.87;;;;;;;2.67;100.00;99369.69;4207948;28;20238;-71
2022/12/22 03:34:05;;;;;;;121.03;36.13;;;;;;;2.67;100.00;99359.19;4206682;28;24102;-73
2022/12/22 03:36:32;;;;;;;122.33;36.23;;;;;;;2.62;100.00;99362.22;4197689;28;20682;-73
2022/12/22 03:38:58;;;;;;;120.40;37.33;;;;;;;2.68;100.00;99360.88;4197204;28;23387;-76
2022/12/22 03:47:05;;;;;;;126.00;38.27;;;;;;;2.77;100.00;99359.34;4192599;28;20526;-71
2022/12/22 03:49:32;;;;;;;117.13;35.97;;;;;;;2.71;100.00;99353.59;4206057;28;22405;-72
2022/12/22 03:51:58;;;;;;;122.70;36.87;;;;;;;2.75;100.00;99362.06;4180186;28;20243;-71
2022/12/22 03:54:25;;;;;;;103.50;34.93;;;;;;;2.76;100.00;99353.22;4196287;28;20232;-72
2022/12/22 03:56:52;;;;;;;115.80;35.50;;;;;;;2.76;100.00;99350.59;4198909;28;20247;-73
2022/12/22 03:59:19;;;;;;;109.97;35.10;;;;;;;2.74;100.00;99342.03;4192494;28;20370;-73
2022/12/22 04:01:48;;;;;;;110.43;36.97;;;;;;;2.74;100.00;99350.75;4204627;28;21422;-72
2022/12/22 04:04:17;;;;;;;107.77;35.17;;;;;;;2.75;100.00;99341.06;4214600;28;20228;-73
2022/12/22 04:06:44;;;;;;;111.87;37.43;;;;;;;2.80;100.00;99338.88;4211959;28;20330;-71
2022/12/22 04:09:11;;;;;;;107.00;34.97;;;;;;;2.83;100.00;99333.38;4198066;28;21629;-72
2022/12/22 04:14:23;;;;;;;109.33;35.27;;;;;;;2.73;100.00;99330.66;4197441;28;20418;-70
2022/12/22 04:16:59;;;;;;;121.40;36.80;;;;;;;2.79;100.00;99336.41;4206892;28;20317;-72
2022/12/22 04:19:26;;;;;;;110.50;36.03;;;;;;;2.82;100.00;99333.53;4207353;28;20351;-72
2022/12/22 04:21:53;;;;;;;103.40;34.27;;;;;;;2.91;100.00;99336.25;4205516;28;20239;-72
2022/12/22 04:24:19;;;;;;;101.20;36.27;;;;;;;2.92;100.00;99332.66;4189231;28;20236;-71
2022/12/22 04:26:46;;;;;;;107.13;35.33;;;;;;;2.89;100.00;99326.81;4201205;28;21639;-71
2022/12/22 04:29:12;;;;;;;90.50;34.10;;;;;;;2.94;100.00;99322.84;4213837;28;20239;-72
2022/12/22 04:31:39;;;;;;;101.10;34.77;;;;;;;2.83;100.00;99319.41;4200547;28;21335;-73
2022/12/22 04:34:06;;;;;;;101.77;35.43;;;;;;;2.89;100.00;99316.31;4210386;28;20246;-72
2022/12/22 04:36:33;;;;;;;99.17;36.53;;;;;;;2.89;100.00;99321.56;4216243;28;21286;-71
2022/12/22 04:38:59;;;;;;;99.53;34.90;;;;;;;2.84;100.00;99315.84;4198657;28;21168;-73
2022/12/22 04:41:26;;;;;;;99.23;35.33;;;;;;;2.99;100.00;99311.13;4188618;28;21234;-72
2022/12/22 04:43:52;;;;;;;93.40;34.87;;;;;;;2.94;100.00;99314.97;4206572;28;21222;-71
2022/12/22 04:46:19;;;;;;;91.33;33.03;;;;;;;3.04;100.00;99320.31;4204008;28;20634;-73
2022/12/22 04:48:46;;;;;;;93.60;34.47;;;;;;;3.12;100.00;99323.16;4183825;28;20256;-72
2022/12/22 04:51:12;;;;;;;91.67;33.77;;;;;;;3.08;100.00;99316.47;4201593;28;23813;-74
2022/12/22 04:53:39;;;;;;;85.83;32.87;;;;;;;3.13;100.00;99308.22;4204490;28;21825;-71
2022/12/22 04:56:06;;;;;;;90.07;33.13;;;;;;;3.11;100.00;99304.88;4202477;28;20314;-71
2022/12/22 04:58:33;;;;;;;82.03;33.37;;;;;;;3.00;100.00;99311.03;4199696;28;20378;-73
2022/12/22 05:01:12;;;;;;;84.20;32.43;;;;;;;2.88;100.00;99298.84;4209252;28;20319;-71
2022/12/22 05:03:39;;;;;;;86.83;31.60;;;;;;;2.87;100.00;99297.19;4219061;28;21595;-71
2022/12/22 05:06:06;;;;;;;90.03;33.67;;;;;;;3.01;100.00;99303.97;4216483;28;21439;-71
2022/12/22 05:08:33;;;;;;;85.00;32.63;;;;;;;2.94;100.00;99303.63;4228295;28;20296;-73
2022/12/22 05:11:01;;;;;;;81.10;33.47;;;;;;;2.90;100.00;99308.31;4188313;28;20298;-72
2022/12/22 05:13:29;;;;;;;88.13;32.60;;;;;;;2.93;100.00;99302.81;4202107;28;22475;-72
2022/12/22 05:16:09;;;;;;;77.50;31.90;;;;;;;2.94;100.00;99296.56;4207220;28;23086;-73
2022/12/22 05:18:37;;;;;;;87.23;32.70;;;;;;;2.97;100.00;99300.75;4204316;28;20313;-72
2022/12/22 05:21:12;;;;;;;81.23;33.30;;;;;;;2.94;100.00;99299.19;4198848;28;22978;-72
2022/12/22 05:23:39;;;;;;;90.07;33.83;;;;;;;2.89;100.00;99301.38;4211533;28;20310;-70
2022/12/22 05:26:06;;;;;;;79.97;32.40;;;;;;;3.03;100.00;99292.38;4222131;28;21627;-71
2022/12/22 05:28:33;;;;;;;83.50;31.23;;;;;;;2.98;100.00;99293.72;4200241;28;20237;-74
2022/12/22 05:31:07;;;;;;;80.30;32.03;;;;;;;3.01;100.00;99285.56;4207000;28;21269;-73
2022/12/22 05:33:34;;;;;;;79.70;31.53;;;;;;;3.04;100.00;99294.03;4211206;28;20413;-72
2022/12/22 05:36:01;;;;;;;83.00;33.37;;;;;;;2.97;100.00;99298.13;4189838;28;20296;-73
2022/12/22 05:38:28;;;;;;;84.60;32.07;;;;;;;2.95;100.00;99300.88;4215502;28;20243;-73
2022/12/22 05:40:54;;;;;;;76.10;30.70;;;;;;;3.07;100.00;99293.78;4203002;28;20310;-72
2022/12/22 05:43:29;;;;;;;77.17;30.97;;;;;;;3.00;100.00;99295.25;4207710;28;20252;-73
2022/12/22 05:45:57;;;;;;;81.77;30.33;;;;;;;3.11;100.00;99283.84;4214693;28;21215;-73
2022/12/22 05:48:24;;;;;;;76.33;30.27;;;;;;;3.14;100.00;99294.97;4221552;28;20247;-70
2022/12/22 05:50:59;;;;;;;81.37;31.23;;;;;;;3.13;100.00;99287.19;4207339;28;21871;-71
2022/12/22 05:53:25;;;;;;;71.13;29.70;;;;;;;3.18;100.00;99292.91;4203155;28;21865;-73
2022/12/22 05:55:52;;;;;;;71.23;30.40;;;;;;;3.14;100.00;99294.97;4212820;28;20233;-72
2022/12/22 05:58:19;;;;;;;69.63;29.50;;;;;;;3.19;100.00;99296.38;4203592;28;20292;-73
2022/12/22 06:00:45;;;;;;;65.70;29.13;;;;;;;3.20;100.00;99304.13;4202801;28;20310;-74
2022/12/22 06:03:12;;;;;;;73.70;30.47;;;;;;;3.20;100.00;99301.50;4198524;28;20233;-73
2022/12/22 06:05:39;;;;;;;69.47;30.03;;;;;;;3.18;100.00;99308.66;4215753;28;21524;-73
2022/12/22 06:08:05;;;;;;;69.73;28.37;;;;;;;3.20;100.00;99314.63;4202221;28;20907;-73
2022/12/22 06:10:32;;;;;;;74.87;29.57;;;;;;;3.16;100.00;99315.84;4206309;28;20377;-70
2022/12/22 06:12:59;;;;;;;68.20;28.10;;;;;;;3.28;100.00;99320.13;4209605;28;20237;-74
2022/12/22 06:15:25;;;;;;;75.37;28.47;;;;;;;3.26;100.00;99313.31;4216513;28;20232;-72
2022/12/22 06:17:53;;;;;;;76.10;28.17;;;;;;;3.28;100.00;99312.22;4193282;28;20318;-72
2022/12/22 06:20:19;;;;;;;78.83;30.27;;;;;;;3.27;100.00;99321.06;4205572;28;20233;-69
2022/12/22 06:22:46;;;;;;;66.17;29.07;;;;;;;3.20;100.00;99319.06;4216393;28;20419;-71
2022/12/22 06:25:12;;;;;;;68.90;29.17;;;;;;;3.23;100.00;99318.81;4218109;28;20240;-74
2022/12/22 06:27:44;;;;;;;63.23;28.37;;;;;;;3.27;100.00;99321.06;4194864;28;20233;-71
2022/12/22 06:30:11;;;;;;;62.27;28.33;;;;;;;3.24;100.00;99328.38;4206101;28;21400;-72
2022/12/22 06:32:38;;;;;;;64.23;27.90;;;;;;;3.14;100.00;99331.75;4218476;28;20320;-71
2022/12/22 06:35:06;;;;;;;71.13;28.37;;;;;;;3.26;100.00;99326.47;4202666;28;23159;-72
2022/12/22 06:37:32;;;;;;;66.63;28.40;;;;;;;3.22;100.00;99333.75;4220205;28;20259;-75
2022/12/22 06:39:59;;;;;;;61.37;27.10;;;;;;;3.34;100.00;99332.75;4210577;28;21772;-71
2022/12/22 06:45:11;;;;;;;68.73;27.90;;;;;;;3.32;100.00;99334.66;4208001;28;21715;-73
2022/12/22 06:47:37;;;;;;;61.40;26.97;;;;;;;3.34;100.00;99332.75;4201378;28;22592;-71
2022/12/22 06:50:05;;;;;;;72.93;27.50;;;;;;;3.22;100.00;99339.00;4199881;28;20239;-71
2022/12/22 06:52:31;;;;;;;61.50;25.73;;;;;;;3.15;100.00;99335.22;4193826;28;20228;-71
2022/12/22 06:54:58;;;;;;;68.93;27.97;;;;;;;3.26;100.00;99335.19;4217404;28;20650;-71
2022/12/22 06:57:24;;;;;;;61.40;26.33;;;;;;;3.30;100.00;99335.75;4185511;28;20388;-71
2022/12/22 06:59:51;;;;;;;68.10;28.60;;;;;;;3.23;100.00;99337.22;4220343;28;20236;-71
2022/12/22 07:02:23;;;;;;;68.40;27.07;;;;;;;3.33;100.00;99336.34;4210834;28;20512;-70
2022/12/22 07:04:49;;;;;;;62.47;27.07;;;;;;;3.37;100.00;99335.16;4201316;28;20248;-73
2022/12/22 07:07:16;;;;;;;65.90;27.77;;;;;;;3.27;100.00;99326.31;4202004;28;20291;-67
2022/12/22 07:09:42;;;;;;;58.27;24.90;;;;;;;3.42;100.00;99323.38;4255939;28;21498;-76
2022/12/22 07:12:09;;;;;;;65.43;25.17;;;;;;;3.36;100.00;99324.75;4257048;28;20810;-75
2022/12/22 07:14:35;;;;;;;71.50;27.13;;;;;;;3.32;100.00;99334.66;4299455;28;20668;-71
2022/12/22 07:17:02;;;;;;;59.93;25.33;;;;;;;3.39;100.00;99329.75;4234928;28;20376;-74
2022/12/22 07:19:31;;;;;;;61.87;26.43;;;;;;;3.37;100.00;99329.88;4234894;28;20294;-74
2022/12/22 07:21:58;;;;;;;63.20;25.67;;;;;;;3.37;100.00;99332.50;4235799;28;20344;-72
2022/12/22 07:24:25;;;;;;;67.37;25.53;;;;;;;3.40;100.00;99326.16;4314364;28;20432;-70
2022/12/22 07:26:52;;;;;;;59.73;26.80;;;;;;;3.24;100.00;99309.97;4302333;28;20300;-73
2022/12/22 07:29:19;;;;;;;71.97;27.63;;;;;;;3.34;100.00;99305.63;4263198;28;20224;-72
2022/12/22 07:31:45;;;;;;;64.13;25.50;;;;;;;3.30;100.00;99299.81;4272375;28;20240;-72
2022/12/22 07:34:12;;;;;;;63.77;24.57;;;;;;;3.39;100.00;99295.56;4288067;28;20526;-72
2022/12/22 07:36:39;;;;;;;60.33;23.97;;;;;;;3.43;100.00;99296.16;4259358;28;20284;-73
2022/12/22 07:39:06;;;;;;;61.20;25.70;;;;;;;3.36;100.00;99301.91;4217081;28;20228;-70
2022/12/22 07:44:18;;;;;;;57.77;24.77;;;;;;;3.44;100.00;99295.16;4249318;28;21465;-71
2022/12/22 07:46:45;;;;;;;62.43;26.97;;;;;;;3.21;100.00;99303.19;4211136;28;20275;-73
2022/12/22 07:51:58;;;;;;;60.43;25.70;;;;;;;3.37;100.00;99306.22;4247214;28;20248;-69
2022/12/22 07:54:25;;;;;;;63.97;25.53;;;;;;;3.23;100.00;99308.28;4203702;28;20292;-68
2022/12/22 07:56:52;;;;;;;60.00;25.10;;;;;;;3.30;100.00;99294.53;4224755;28;20247;-68
2022/12/22 07:59:19;;;;;;;56.37;25.40;;;;;;;3.38;100.00;99297.34;4227160;28;21382;-68
2022/12/22 08:01:45;;;;;;;64.30;26.53;;;;;;;3.30;100.00;99299.81;4229432;28;21433;-71
2022/12/22 08:04:13;;;;;;;59.93;26.50;;;;;;;3.31;100.00;99287.47;4234276;28;20256;-68
2022/12/22 08:06:40;;;;;;;61.27;24.70;;;;;;;3.43;100.00;99283.81;4214928;28;20240;-69
2022/12/22 08:09:07;;;;;;;63.87;24.80;;;;;;;3.38;100.00;99281.56;4238361;28;20219;-72
2022/12/22 08:11:34;;;;;;;67.40;25.17;;;;;;;3.49;100.00;99279.84;4192561;28;22337;-71
2022/12/22 08:14:01;;;;;;;63.33;24.57;;;;;;;3.43;100.00;99272.47;4230996;28;21494;-69
2022/12/22 08:16:28;;;;;;;51.73;23.73;;;;;;;3.59;100.00;99259.72;4243233;28;20241;-68
2022/12/22 08:18:55;;;;;;;59.53;24.00;;;;;;;3.54;100.00;99267.16;4206949;28;20239;-73
2022/12/22 08:21:22;;;;;;;49.83;21.97;;;;;;;3.59;100.00;99259.72;4262283;28;21406;-70
2022/12/22 08:23:48;;;;;;;55.43;22.80;;;;;;;3.61;100.00;99255.16;4221981;28;20552;-73
2022/12/22 08:26:20;;;;;;;55.00;23.00;;;;;;;3.65;100.00;99266.25;4215764;28;20310;-71
2022/12/22 08:28:51;;;;;;;47.87;21.77;;;;;;;3.71;100.00;99266.56;4261916;28;20267;-70
2022/12/22 08:31:18;;;;;;;51.40;21.97;;;;;;;3.84;100.00;99257.63;4202729;28;20238;-68
2022/12/22 08:33:46;;;;;;;47.53;22.50;;;;;;;3.92;100.00;99252.53;4257539;28;20261;-70
2022/12/22 08:36:13;;;;;;;46.67;21.83;;;;;;;4.01;100.00;99254.38;4257655;28;20243;-71
2022/12/22 08:38:41;;;;;;;49.07;22.40;;;;;;;4.14;100.00;99252.34;4240402;28;20239;-72
2022/12/22 08:41:09;;;;;;;50.63;21.70;;;;;;;4.18;100.00;99259.00;4258823;28;21491;-68
2022/12/22 08:43:36;;;;;;;50.67;22.03;;;;;;;4.22;100.00;99263.06;4254525;28;20240;-70
2022/12/22 08:46:03;;;;;;;44.20;21.60;;;;;;;4.18;100.00;99259.00;4298179;28;20232;-69
2022/12/22 08:48:31;;;;;;;52.63;22.83;;;;;;;4.33;100.00;99258.63;4216746;28;22231;-71
2022/12/22 08:50:58;;;;;;;52.97;21.77;;;;;;;4.38;100.00;99253.81;4240347;28;21336;-68
2022/12/22 08:53:25;;;;;;;49.60;21.13;;;;;;;4.32;100.00;99256.97;4253084;28;20226;-67
2022/12/22 08:56:11;;;;;;;53.80;22.70;;;;;;;4.51;100.00;99259.66;4213166;28;20245;-71
2022/12/22 08:58:39;;;;;;;54.30;22.93;;;;;;;4.54;100.00;99254.16;4264611;28;22105;-70
2022/12/22 09:01:05;;;;;;;51.60;22.70;;;;;;;5.01;100.00;99259.59;4228809;28;21358;-71
2022/12/22 09:03:32;;;;;;;49.50;21.73;;;;;;;6.53;100.00;99271.03;4268520;28;20313;-68
2022/12/22 09:06:02;;;;;;;43.03;19.17;;;;;;;7.56;96.97;99274.13;4230684;28;20236;-68
2022/12/22 09:08:29;;;;;;;46.57;20.30;;;;;;;6.93;94.64;99275.06;4237337;28;21447;-69
2022/12/22 09:11:02;;;;;;;46.23;19.27;;;;;;;6.15;97.75;99266.78;4222240;28;20280;-73
2022/12/22 09:13:29;;;;;;;42.07;19.37;;;;;;;5.67;100.00;99277.31;4237090;28;20311;-69
2022/12/22 09:15:56;;;;;;;42.13;18.83;;;;;;;5.53;100.00;99269.00;4225087;28;20249;-69
2022/12/22 09:18:24;;;;;;;42.43;20.03;;;;;;;5.56;100.00;99276.63;4224869;28;20363;-70
2022/12/22 09:20:54;;;;;;;45.10;19.97;;;;;;;5.61;100.00;99277.03;4228516;28;20559;-68
2022/12/22 09:23:21;;;;;;;42.73;19.97;;;;;;;5.73;100.00;99260.06;4197447;28;20470;-69
2022/12/22 09:25:47;;;;;;;40.67;18.43;;;;;;;5.90;100.00;99261.97;4250171;28;20233;-68
2022/12/22 09:28:14;;;;;;;50.43;19.27;;;;;;;5.77;100.00;99257.97;4237032;28;21230;-68
2022/12/22 09:30:40;;;;;;;53.70;19.93;;;;;;;5.24;100.00;99252.25;4195292;28;20291;-69
2022/12/22 09:33:07;;;;;;;43.03;19.53;;;;;;;5.00;100.00;99243.91;4266886;28;20229;-69
2022/12/22 09:35:34;;;;;;;46.07;19.87;;;;;;;4.81;100.00;99245.56;4232680;28;20229;-71
2022/12/22 09:38:00;;;;;;;39.87;18.43;;;;;;;4.80;100.00;99230.75;4236775;28;20233;-66
2022/12/22 09:40:27;;;;;;;39.33;18.93;;;;;;;4.58;100.00;99229.16;4242931;28;20890;-71
2022/12/22 09:42:53;;;;;;;45.33;19.17;;;;;;;4.48;100.00;99220.44;4257547;28;20463;-68
2022/12/22 09:45:20;;;;;;;44.53;19.00;;;;;;;4.41;100.00;99216.69;4240403;28;20232;-71
2022/12/22 09:47:52;;;;;;;41.87;19.63;;;;;;;4.25;100.00;99217.19;4290117;28;20676;-70
2022/12/22 09:50:23;;;;;;;43.67;20.03;;;;;;;4.22;100.00;99218.28;4239045;28;21468;-69
2022/12/22 09:53:00;;;;;;;39.83;19.03;;;;;;;4.37;100.00;99220.53;4252103;28;20255;-72
2022/12/22 09:55:47;;;;;;;39.00;18.63;;;;;;;4.37;100.00;99210.84;4249872;28;20310;-69
2022/12/22 09:58:27;;;;;;;46.43;20.80;;;;;;;4.35;100.00;99198.78;4248056;28;20287;-69
2022/12/22 10:01:00;;;;;;;41.43;19.47;;;;;;;4.33;100.00;99203.34;4272815;28;20409;-73
2022/12/22 10:03:45;;;;;;;42.43;19.00;;;;;;;4.19;100.00;99196.66;4206805;28;20243;-69
2022/12/22 10:06:22;;;;;;;39.87;19.47;;;;;;;4.21;100.00;99192.94;4224614;28;20228;-71
2022/12/22 10:08:48;;;;;;;46.30;19.67;;;;;;;4.12;100.00;99191.13;4215752;28;20236;-71
2022/12/22 10:11:17;;;;;;;44.70;20.20;;;;;;;3.94;100.00;99182.19;4193621;28;20241;-71
2022/12/22 10:13:44;;;;;;;45.90;20.40;;;;;;;3.91;100.00;99183.28;4225084;28;20233;-73
2022/12/22 10:16:18;;;;;;;46.93;20.47;;;;;;;4.00;100.00;99176.38;4200895;28;20501;-70
2022/12/22 10:18:56;;;;;;;48.40;20.80;;;;;;;4.11;100.00;99173.63;4203105;28;20258;-72
2022/12/22 10:21:23;;;;;;;44.60;20.87;;;;;;;4.22;100.00;99184.06;4210836;28;20236;-70
2022/12/22 10:23:51;;;;;;;46.83;20.13;;;;;;;4.22;100.00;99175.34;4184232;28;21238;-72
2022/12/22 10:26:25;;;;;;;43.33;19.70;;;;;;;4.22;100.00;99155.09;4203375;28;20980;-71
2022/12/22 10:29:03;;;;;;;52.07;20.37;;;;;;;4.26;100.00;99165.34;4215849;28;21796;-72
2022/12/22 10:31:31;;;;;;;44.33;20.97;;;;;;;4.11;100.00;99165.75;4208375;28;20378;-70
2022/12/22 10:34:09;;;;;;;50.87;20.67;;;;;;;4.10;100.00;99156.19;4209843;28;22370;-70
2022/12/22 10:36:36;;;;;;;47.70;20.90;;;;;;;4.09;100.00;99149.25;4214118;28;20426;-72
2022/12/22 10:39:04;;;;;;;49.30;22.30;;;;;;;4.12;100.00;99151.63;4208150;28;20702;-69
2022/12/22 10:41:45;;;;;;;46.57;21.30;;;;;;;4.12;100.00;99143.72;4210359;28;20232;-68
2022/12/22 10:44:14;;;;;;;50.63;22.40;;;;;;;4.13;100.00;99148.00;4212928;28;20230;-76
2022/12/22 10:46:47;;;;;;;47.63;21.30;;;;;;;4.11;100.00;99136.78;4216634;28;27081;-76
2022/12/22 10:49:22;;;;;;;50.93;22.13;;;;;;;4.09;100.00;99127.34;4205550;28;20348;-74
2022/12/22 10:51:54;;;;;;;45.87;20.83;;;;;;;4.06;100.00;99117.94;4221538;28;20403;-73
2022/12/22 10:54:32;;;;;;;51.17;22.27;;;;;;;4.00;100.00;99118.47;4225550;28;20411;-74
2022/12/22 10:57:05;;;;;;;48.90;21.50;;;;;;;4.10;100.00;99118.50;4205382;28;20240;-71
2022/12/22 10:59:32;;;;;;;45.67;21.23;;;;;;;3.99;100.00;99106.28;4234752;28;20248;-71
2022/12/22 11:02:24;;;;;;;48.83;21.97;;;;;;;3.87;100.00;99102.94;4224827;28;20228;-74
2022/12/22 11:04:52;;;;;;;57.37;22.87;;;;;;;3.77;100.00;99094.19;4228632;28;20243;-70
2022/12/22 11:07:19;;;;;;;59.00;23.97;;;;;;;3.80;100.00;99097.38;4196998;28;20244;-67
2022/12/22 11:09:46;;;;;;;48.17;23.10;;;;;;;3.85;100.00;99099.59;4230601;28;20262;-67
2022/12/22 11:12:54;;;;;;;59.70;25.73;;;;;;;4.04;100.00;99101.44;4201911;28;20236;-70
2022/12/22 11:15:32;;;;;;;52.50;22.27;;;;;;;4.12;100.00;99108.66;4227428;28;20293;-70
2022/12/22 11:17:59;;;;;;;55.10;24.97;;;;;;;4.08;100.00;99100.22;4209573;28;22063;-70
2022/12/22 11:21:08;;;;;;;56.23;25.33;;;;;;;4.19;100.00;99083.44;4216816;28;20311;-72
2022/12/22 11:24:01;;;;;;;58.83;24.53;;;;;;;4.20;100.00;99083.31;4255953;28;20248;-69
2022/12/22 11:26:46;;;;;;;51.20;23.37;;;;;;;4.06;100.00;99088.97;4199153;28;20236;-68
2022/12/22 11:29:43;;;;;;;55.60;24.43;;;;;;;3.95;100.00;99086.47;4204052;28;20502;-70
2022/12/22 11:32:24;;;;;;;54.23;24.47;;;;;;;4.08;100.00;99078.31;4226091;28;21124;-71
2022/12/22 11:34:58;;;;;;;53.37;25.10;;;;;;;4.10;100.00;99064.06;4231364;28;20817;-71
2022/12/22 11:37:37;;;;;;;58.47;25.67;;;;;;;4.21;100.00;99063.06;4215720;28;20929;-69
2022/12/22 11:40:23;;;;;;;57.63;24.53;;;;;;;4.23;100.00;99054.06;4231140;28;20243;-67
2022/12/22 11:43:22;;;;;;;56.47;25.33;;;;;;;4.20;100.00;99059.63;4242155;28;20706;-69
2022/12/22 11:46:33;;;;;;;58.63;24.50;;;;;;;4.25;100.00;99047.84;4286455;28;20309;-73
2022/12/22 11:49:25;;;;;;;55.20;23.33;;;;;;;4.30;100.00;99053.50;4233830;28;21107;-72
2022/12/22 11:52:16;;;;;;;61.67;24.97;;;;;;;4.31;100.00;99034.09;4246761;28;20362;-70
2022/12/22 11:55:28;;;;;;;56.77;24.60;;;;;;;4.26;100.00;99031.06;4281700;28;20235;-68
2022/12/22 11:58:13;;;;;;;61.93;25.13;;;;;;;4.35;100.00;99044.22;4216074;29;20249;-66
2022/12/22 12:00:49;;;;;;;55.23;24.60;;;;;;;4.58;100.00;99049.19;4246932;28;22296;-74
2022/12/22 12:04:04;;;;;;;50.60;23.90;;;;;;;4.63;100.00;99047.78;4267621;28;20233;-77
2022/12/22 12:07:04;;;;;;;57.60;24.90;;;;;;;4.75;100.00;99045.00;4261505;28;21234;-77
2022/12/22 12:09:57;;;;;;;52.33;23.30;;;;;;;4.84;100.00;99046.78;4203261;28;21823;-76
2022/12/22 12:12:42;;;;;;;57.40;23.83;;;;;;;4.81;100.00;99033.91;4222602;28;21806;-74
2022/12/22 12:15:23;;;;;;;57.83;24.50;;;;;;;4.95;100.00;99038.72;4219166;28;20457;-74
2022/12/22 12:18:14;;;;;;;55.83;23.40;;;;;;;4.93;100.00;99022.22;4200870;28;20304;-74
2022/12/22 12:21:02;;;;;;;57.13;23.27;;;;;;;4.87;100.00;99030.72;4228106;28;20243;-75
2022/12/22 12:24:01;;;;;;;58.47;25.17;;;;;;;4.70;100.00;99026.16;4204850;28;20287;-77
2022/12/22 12:26:36;;;;;;;48.17;23.30;;;;;;;4.79;100.00;99025.31;4226504;28;22129;-78
2022/12/22 12:29:16;;;;;;;61.10;24.57;;;;;;;4.83;100.00;99047.78;4238909;28;20244;-74
2022/12/22 12:31:46;;;;;;;52.70;23.93;;;;;;;4.76;100.00;99028.22;4242319;28;20407;-77
2022/12/22 12:34:15;;;;;;;52.40;24.53;;;;;;;4.77;100.00;99012.25;4235360;28;20248;-75
2022/12/22 12:36:50;;;;;;;54.43;23.83;;;;;;;4.72;100.00;99009.22;4247785;28;20287;-75
2022/12/22 12:39:28;;;;;;;50.43;23.80;;;;;;;4.70;100.00;99010.34;4230684;28;20310;-77
2022/12/22 12:42:00;;;;;;;57.33;25.00;;;;;;;4.69;100.00;99013.97;4239189;28;20243;-78
2022/12/22 12:44:34;;;;;;;57.03;25.03;;;;;;;4.67;100.00;99008.00;4231274;28;20330;-74
2022/12/22 12:47:34;;;;;;;53.57;23.63;;;;;;;4.70;100.00;99005.06;4250918;28;21483;-77
2022/12/22 12:50:29;;;;;;;52.23;22.13;;;;;;;4.67;100.00;99003.56;4233176;28;20319;-74
2022/12/22 12:52:56;;;;;;;57.30;22.53;;;;;;;4.42;100.00;99005.00;4219124;28;20634;-74
2022/12/22 12:55:28;;;;;;;48.70;23.30;;;;;;;4.40;100.00;99009.56;4242507;28;21988;-75
2022/12/22 12:58:01;;;;;;;50.87;22.43;;;;;;;4.27;100.00;98998.50;4217599;28;23470;-79
2022/12/22 13:00:33;;;;;;;50.73;21.37;;;;;;;4.22;100.00;99007.66;4218147;28;20315;-76
2022/12/22 13:03:07;;;;;;;46.47;21.07;;;;;;;4.05;100.00;99010.13;4225221;28;21543;-73
2022/12/22 13:05:35;;;;;;;48.23;20.77;;;;;;;3.75;100.00;99007.50;4270366;28;20696;-75
2022/12/22 13:08:13;;;;;;;49.07;21.20;;;;;;;3.74;100.00;99010.25;4279807;28;20340;-76
2022/12/22 13:10:44;;;;;;;46.00;21.07;;;;;;;3.66;100.00;99008.31;4240086;28;20341;-77
2022/12/22 13:13:20;;;;;;;54.30;22.43;;;;;;;3.48;100.00;99008.13;4240733;28;20227;-76
2022/12/22 13:15:50;;;;;;;56.40;21.93;;;;;;;3.42;100.00;99008.69;4243129;28;21867;-77
2022/12/22 13:18:25;;;;;;;50.47;22.43;;;;;;;3.52;100.00;99006.09;4245892;28;20589;-75
2022/12/22 13:20:55;;;;;;;53.17;22.63;;;;;;;3.47;100.00;99018.81;4239912;28;21240;-74
2022/12/22 13:23:56;;;;;;;47.50;20.73;;;;;;;3.40;100.00;99004.53;4252442;28;20324;-79
2022/12/22 13:26:44;;;;;;;63.57;23.33;;;;;;;3.36;100.00;98999.53;4216520;28;20240;-77
2022/12/22 13:29:28;;;;;;;58.63;23.27;;;;;;;3.24;100.00;98987.47;4208706;28;20229;-76
2022/12/22 13:32:11;;;;;;;56.67;23.47;;;;;;;3.25;100.00;98990.91;4252419;28;20332;-75
2022/12/22 13:34:45;;;;;;;55.50;23.00;;;;;;;3.24;100.00;98995.34;4234934;28;20650;-74
2022/12/22 13:37:39;;;;;;;51.57;22.57;;;;;;;3.21;100.00;98985.13;4251801;28;20866;-75
2022/12/22 13:40:18;;;;;;;56.37;24.13;;;;;;;3.15;100.00;98996.16;4215806;28;20239;-76
2022/12/22 13:42:46;;;;;;;66.77;24.17;;;;;;;3.18;100.00;98993.25;4206426;28;20292;-75
2022/12/22 13:45:35;;;;;;;60.83;24.37;;;;;;;3.29;100.00;98976.53;4197624;28;22344;-78
2022/12/22 13:48:09;;;;;;;61.47;25.27;;;;;;;3.16;100.00;98976.78;4232809;28;21477;-74
2022/12/22 13:50:40;;;;;;;64.53;24.73;;;;;;;3.24;100.00;98976.94;4208891;28;22969;-74
2022/12/22 13:53:09;;;;;;;58.10;24.87;;;;;;;3.26;100.00;98977.66;4208689;28;21504;-74
2022/12/22 13:55:36;;;;;;;64.17;25.17;;;;;;;3.23;100.00;98982.34;4217757;28;20241;-74
2022/12/22 13:58:06;;;;;;;61.37;24.37;;;;;;;3.29;100.00;98982.63;4203523;28;21743;-76
2022/12/22 14:00:33;;;;;;;66.83;26.83;;;;;;;3.31;100.00;98969.34;4201089;28;20237;-71
2022/12/22 14:03:00;;;;;;;70.77;28.03;;;;;;;3.35;100.00;98965.50;4207456;28;20562;-74
2022/12/22 14:05:34;;;;;;;69.60;27.80;;;;;;;3.34;100.00;98959.38;4222650;28;21730;-74
2022/12/22 14:08:05;;;;;;;65.40;27.80;;;;;;;3.40;100.00;98944.88;4220500;28;23621;-73
2022/12/22 14:10:35;;;;;;;67.83;28.10;;;;;;;3.44;100.00;98943.66;4222272;28;23014;-71
2022/12/22 14:13:05;;;;;;;67.37;28.30;;;;;;;3.47;100.00;98940.75;4227026;28;20783;-76
2022/12/22 14:15:32;;;;;;;71.33;29.10;;;;;;;3.41;100.00;98935.19;4189315;28;20940;-75
2022/12/22 14:17:58;;;;;;;65.03;27.20;;;;;;;3.48;100.00;98928.41;4209734;28;20589;-75
2022/12/22 14:20:35;;;;;;;63.47;26.13;;;;;;;3.54;100.00;98933.16;4205478;28;20247;-72
2022/12/22 14:23:25;;;;;;;68.53;28.03;;;;;;;3.59;100.00;98941.44;4209839;28;21244;-75
2022/12/22 14:25:52;;;;;;;70.00;29.50;;;;;;;3.59;100.00;98925.66;4222059;28;20293;-76
2022/12/22 14:28:42;;;;;;;68.60;29.77;;;;;;;3.69;100.00;98926.50;4215615;28;20247;-75
2022/12/22 14:31:11;;;;;;;64.17;27.50;;;;;;;3.69;100.00;98925.66;4211821;28;20302;-72
2022/12/22 14:33:53;;;;;;;66.00;28.90;;;;;;;3.73;100.00;98933.13;4226052;28;20270;-70
2022/12/22 14:36:26;;;;;;;70.37;28.37;;;;;;;3.79;100.00;98927.34;4194213;28;20392;-73
2022/12/22 14:38:57;;;;;;;63.63;27.63;;;;;;;3.84;100.00;98924.28;4212552;28;20300;-70
2022/12/22 14:41:50;;;;;;;65.73;28.27;;;;;;;3.81;100.00;98920.09;4195274;28;20261;-71
2022/12/22 14:44:21;;;;;;;55.50;25.33;;;;;;;3.77;100.00;98913.50;4213618;28;20232;-72
2022/12/22 14:47:08;;;;;;;55.80;25.33;;;;;;;3.74;100.00;98905.84;4215660;28;20295;-72
2022/12/22 14:49:42;;;;;;;56.70;25.90;;;;;;;3.68;100.00;98911.69;4200498;28;20329;-71
2022/12/22 14:52:17;;;;;;;59.60;26.00;;;;;;;3.69;100.00;98907.25;4205054;28;22990;-72
2022/12/22 14:54:46;;;;;;;58.53;25.80;;;;;;;3.65;100.00;98913.75;4221314;28;20231;-72
2022/12/22 14:57:14;;;;;;;62.83;26.67;;;;;;;3.79;100.00;98921.22;4193764;28;21397;-73
2022/12/22 14:59:56;;;;;;;62.33;25.93;;;;;;;3.71;100.00;98919.28;4200084;28;20235;-71
2022/12/22 15:02:31;;;;;;;58.20;26.83;;;;;;;3.71;100.00;98908.78;4213949;28;21316;-72
2022/12/22 15:05:13;;;;;;;55.17;25.23;;;;;;;3.73;100.00;98916.53;4188488;28;20238;-71
2022/12/22 15:07:46;;;;;;;60.77;27.07;;;;;;;3.70;100.00;98909.75;4200102;28;22405;-75
2022/12/22 15:10:37;;;;;;;56.13;26.00;;;;;;;3.66;100.00;98904.91;4215634;28;20645;-70
2022/12/22 15:13:09;;;;;;;63.80;27.30;;;;;;;3.55;100.00;98904.06;4195054;28;20240;-73
2022/12/22 15:15:36;;;;;;;62.23;26.67;;;;;;;3.57;100.00;98902.13;4194830;28;21141;-73
2022/12/22 15:18:02;;;;;;;58.87;26.10;;;;;;;3.51;100.00;98896.56;4192073;28;20432;-72
2022/12/22 15:20:29;;;;;;;62.53;28.00;;;;;;;3.55;100.00;98893.53;4186947;28;20241;-70
2022/12/22 15:23:10;;;;;;;58.63;27.47;;;;;;;3.56;100.00;98897.03;4222006;28;21607;-71